Terminal Aerodrome Forecast
Issued by NWS

Home | Current Version | Previous Version | Text Only | Print | Product List | Glossary On
Versions: 1 2 3 4 5 6 7 8 9 10 11 12 13 14 15 16 17
000
FTUS42 TJSJ 242346
TAFNCM
TAF
TNCM 242346Z 2500/2524 11012KT P6SM SHRA VCTS SCT018CB BKN035
      OVC090
     FM251130 12012KT P6SM VCSH SCT018 SCT035 BKN070
     FM252300 09008KT P6SM SCT018 SCT035=

USA.gov is the U.S. government's official web portal to all federal, state and local government web resources and services.